createdAt,value
2022-10-12T00:02:15.646Z,5.90
2022-10-12T00:05:06.203Z,5.80
2022-10-12T00:07:54.765Z,5.90
2022-10-12T00:10:44.192Z,5.90
2022-10-12T00:13:33.033Z,5.90
2022-10-12T00:16:23.446Z,5.90
2022-10-12T00:19:14.651Z,5.90
2022-10-12T00:22:04.624Z,5.90
2022-10-12T00:24:54.362Z,6.00
2022-10-12T00:27:42.927Z,5.90
2022-10-12T00:30:31.751Z,5.90
2022-10-12T00:33:20.326Z,5.90
2022-10-12T00:36:18.818Z,5.80
2022-10-12T00:39:10.195Z,5.80
2022-10-12T00:41:58.762Z,5.90
2022-10-12T00:44:48.615Z,5.80
2022-10-12T00:47:39.704Z,5.80
2022-10-12T00:50:31.285Z,5.80
2022-10-12T00:53:24.785Z,5.70
2022-10-12T00:56:21.824Z,5.70
2022-10-12T00:59:14.928Z,5.60
2022-10-12T01:02:03.869Z,5.60
2022-10-12T01:04:52.819Z,5.60
2022-10-12T01:07:42.559Z,5.60
2022-10-12T01:10:31.216Z,5.60
2022-10-12T01:13:21.220Z,5.60
2022-10-12T01:16:19.576Z,5.60
2022-10-12T01:19:22.959Z,5.60
2022-10-12T01:22:16.885Z,5.50
2022-10-12T01:25:16.298Z,5.50
2022-10-12T01:28:17.662Z,5.50
2022-10-12T01:31:14.146Z,5.50
2022-10-12T01:34:08.980Z,5.50
2022-10-12T01:37:06.379Z,5.50
2022-10-12T01:39:57.240Z,5.50
2022-10-12T01:42:46.933Z,5.40
2022-10-12T01:45:35.718Z,5.40
2022-10-12T01:48:25.718Z,5.40
2022-10-12T01:51:18.529Z,5.30
2022-10-12T01:54:13.674Z,5.30
2022-10-12T01:57:07.784Z,5.30
2022-10-12T02:00:05.811Z,5.30
2022-10-12T02:03:01.095Z,5.20
2022-10-12T02:05:57.102Z,5.20
2022-10-12T02:08:52.608Z,5.20
2022-10-12T02:11:44.274Z,5.20
2022-10-12T02:14:36.714Z,5.20
2022-10-12T02:17:25.786Z,5.20
2022-10-12T02:20:18.424Z,5.20
2022-10-12T02:23:09.364Z,5.20
2022-10-12T02:25:59.264Z,5.10
2022-10-12T02:28:50.843Z,5.10
2022-10-12T02:31:48.903Z,5.10
2022-10-12T02:34:44.561Z,5.10
2022-10-12T02:37:39.306Z,5.10
2022-10-12T02:40:34.948Z,5.10
2022-10-12T02:43:28.876Z,5.10
2022-10-12T02:46:19.701Z,5.10
2022-10-12T02:49:10.297Z,5.00
2022-10-12T02:51:59.289Z,5.00
2022-10-12T02:54:48.032Z,5.10
2022-10-12T02:57:38.207Z,5.10
2022-10-12T03:00:27.097Z,5.10
2022-10-12T03:03:15.760Z,5.10
2022-10-12T03:06:04.731Z,5.00
2022-10-12T03:08:53.329Z,5.00
2022-10-12T03:11:43.958Z,5.00
2022-10-12T03:14:35.202Z,5.00
2022-10-12T03:17:23.900Z,5.00
2022-10-12T03:20:13.116Z,5.00
2022-10-12T03:23:01.676Z,5.00
2022-10-12T03:25:50.250Z,5.00
2022-10-12T03:28:38.855Z,5.10
2022-10-12T03:31:28.897Z,5.10
2022-10-12T03:34:17.447Z,5.10
2022-10-12T03:37:06.022Z,5.00
2022-10-12T03:39:54.555Z,5.00
2022-10-12T03:42:43.116Z,5.00
2022-10-12T03:45:31.760Z,5.00
2022-10-12T03:48:21.972Z,5.00
2022-10-12T03:51:10.549Z,5.00
2022-10-12T03:53:59.162Z,4.90
2022-10-12T03:56:47.710Z,4.90
2022-10-12T03:59:36.293Z,4.90
2022-10-12T04:02:24.892Z,4.80
2022-10-12T04:05:14.901Z,4.80
2022-10-12T04:08:03.707Z,4.80
2022-10-12T04:10:52.268Z,4.90
2022-10-12T04:13:40.847Z,4.80
2022-10-12T04:16:31.124Z,4.80
2022-10-12T04:19:19.923Z,4.70
2022-10-12T04:22:10.037Z,4.80
2022-10-12T04:24:58.546Z,4.80
2022-10-12T04:27:47.124Z,4.80
2022-10-12T04:30:35.649Z,4.70
2022-10-12T04:33:24.232Z,4.80
2022-10-12T04:36:12.762Z,4.80
2022-10-12T04:39:03.000Z,4.80
2022-10-12T04:41:51.571Z,4.70
2022-10-12T04:44:40.120Z,4.70
2022-10-12T04:47:28.666Z,4.60
2022-10-12T04:50:17.274Z,4.70
2022-10-12T04:53:05.846Z,4.60
2022-10-12T04:55:55.796Z,4.60
2022-10-12T04:58:44.380Z,4.60
2022-10-12T05:01:32.973Z,4.60
2022-10-12T05:04:21.701Z,4.60
2022-10-12T05:07:10.662Z,4.60
2022-10-12T05:09:59.249Z,4.60
2022-10-12T05:12:49.233Z,4.60
2022-10-12T05:15:37.767Z,4.60
2022-10-12T05:18:26.355Z,4.60
2022-10-12T05:21:14.916Z,4.50
2022-10-12T05:24:03.487Z,4.50
2022-10-12T05:26:52.045Z,4.50
2022-10-12T05:29:41.978Z,4.50
2022-10-12T05:32:30.508Z,4.40
2022-10-12T05:35:19.346Z,4.40
2022-10-12T05:38:07.876Z,4.40
2022-10-12T05:41:00.363Z,4.50
2022-10-12T05:43:49.416Z,4.40
2022-10-12T05:46:39.368Z,4.50
2022-10-12T05:49:27.999Z,4.50
2022-10-12T05:52:16.552Z,4.50
2022-10-12T05:55:05.665Z,4.50
2022-10-12T05:57:54.237Z,4.60
2022-10-12T06:00:42.777Z,4.60
2022-10-12T06:03:34.994Z,4.60
2022-10-12T06:06:25.015Z,4.60
2022-10-12T06:09:13.608Z,4.60
2022-10-12T06:12:02.171Z,4.70
2022-10-12T06:14:50.720Z,4.80
2022-10-12T06:17:39.324Z,5.10
2022-10-12T06:20:29.333Z,5.40
2022-10-12T06:23:18.290Z,6.00
2022-10-12T06:26:07.024Z,6.80
2022-10-12T06:28:55.788Z,7.40
2022-10-12T06:31:49.013Z,8.10
2022-10-12T06:34:39.896Z,8.60
2022-10-12T06:37:49.178Z,8.90
2022-10-12T06:40:38.744Z,8.90
2022-10-12T06:43:27.318Z,8.70
2022-10-12T06:46:15.848Z,8.50
2022-10-12T06:49:04.527Z,8.30
2022-10-12T06:51:53.045Z,8.20
2022-10-12T06:54:43.019Z,8.10
2022-10-12T06:57:31.533Z,7.90
2022-10-12T07:00:20.162Z,7.80
2022-10-12T07:03:08.740Z,7.60
2022-10-12T07:05:57.286Z,7.60
2022-10-12T07:08:45.880Z,7.60
2022-10-12T07:11:35.860Z,7.70
2022-10-12T07:14:24.429Z,7.60
2022-10-12T07:17:12.975Z,7.60
2022-10-12T07:20:01.736Z,7.70
2022-10-12T07:22:50.922Z,7.80
2022-10-12T07:25:39.538Z,8.00
2022-10-12T07:28:30.583Z,8.20
2022-10-12T07:31:19.265Z,8.30
2022-10-12T07:34:07.820Z,8.30
2022-10-12T07:36:59.804Z,8.20
2022-10-12T07:39:49.854Z,8.20
2022-10-12T07:42:59.153Z,8.10
2022-10-12T07:45:52.762Z,8.10
2022-10-12T07:48:45.635Z,8.20
2022-10-12T07:51:38.428Z,8.30
2022-10-12T07:54:29.508Z,8.30
2022-10-12T07:57:18.241Z,8.40
2022-10-12T08:00:08.142Z,8.40
2022-10-12T08:02:58.088Z,8.50
2022-10-12T08:05:46.696Z,8.40
2022-10-12T08:08:35.269Z,8.40
2022-10-12T08:11:24.202Z,8.30
2022-10-12T08:14:15.923Z,8.40
2022-10-12T08:17:05.582Z,8.40
2022-10-12T08:19:56.496Z,8.40
2022-10-12T08:22:45.046Z,8.40
2022-10-12T08:25:34.551Z,8.50
2022-10-12T08:28:23.176Z,8.50
2022-10-12T08:31:14.563Z,8.50
2022-10-12T08:34:03.597Z,8.60
2022-10-12T08:36:53.519Z,8.80
2022-10-12T08:39:42.086Z,8.90
2022-10-12T08:42:41.416Z,9.10
2022-10-12T08:45:38.873Z,9.20
2022-10-12T08:48:31.922Z,9.20
2022-10-12T08:51:24.786Z,9.30
2022-10-12T08:54:16.949Z,9.30
2022-10-12T08:57:06.670Z,9.40
2022-10-12T08:59:55.265Z,9.40
2022-10-12T09:02:58.955Z,9.60
2022-10-12T09:05:55.026Z,9.70
2022-10-12T09:09:00.090Z,10.00
2022-10-12T09:12:05.499Z,10.20
2022-10-12T09:15:00.512Z,10.50
2022-10-12T09:17:52.627Z,10.60
2022-10-12T09:20:48.473Z,10.60
2022-10-12T09:23:40.992Z,10.60
2022-10-12T09:26:35.767Z,10.60
2022-10-12T09:29:28.872Z,10.60
2022-10-12T09:32:43.983Z,10.70
2022-10-12T09:35:33.548Z,11.10
2022-10-12T09:38:24.483Z,11.90
2022-10-12T09:41:20.926Z,12.30
2022-10-12T09:44:17.474Z,12.50
2022-10-12T09:47:24.616Z,12.40
2022-10-12T09:50:14.364Z,12.40
2022-10-12T09:53:04.307Z,12.80
2022-10-12T09:56:06.855Z,13.30
2022-10-12T09:58:58.232Z,13.40
2022-10-12T10:02:00.385Z,13.40
2022-10-12T10:04:51.932Z,13.10
2022-10-12T10:07:40.484Z,12.90
2022-10-12T10:10:30.789Z,12.70
2022-10-12T10:13:20.585Z,12.60
2022-10-12T10:16:11.104Z,12.60
2022-10-12T10:19:01.953Z,12.70
2022-10-12T10:21:53.951Z,12.70
2022-10-12T10:24:42.740Z,12.70
2022-10-12T10:27:34.553Z,12.80
2022-10-12T10:30:32.542Z,12.80
2022-10-12T10:33:26.083Z,12.70
2022-10-12T10:36:21.435Z,12.70
2022-10-12T10:39:22.546Z,12.80
2022-10-12T10:42:12.188Z,12.80
2022-10-12T10:45:04.117Z,12.90
2022-10-12T10:48:01.337Z,13.00
2022-10-12T10:50:56.804Z,13.10
2022-10-12T10:53:47.659Z,13.20
2022-10-12T10:56:37.941Z,13.30
2022-10-12T10:59:38.037Z,13.30
2022-10-12T11:02:36.000Z,13.40
2022-10-12T11:05:28.815Z,13.50
2022-10-12T11:08:21.939Z,13.60
2022-10-12T11:11:14.853Z,13.80
2022-10-12T11:14:13.207Z,13.90
2022-10-12T11:17:05.243Z,13.90
2022-10-12T11:20:05.198Z,14.10
2022-10-12T11:22:58.796Z,14.20
2022-10-12T11:26:00.794Z,14.20
2022-10-12T11:28:49.909Z,14.10
2022-10-12T11:31:44.456Z,14.00
2022-10-12T11:34:40.661Z,13.90
2022-10-12T11:37:37.370Z,14.00
2022-10-12T11:43:45.529Z,13.90
2022-10-12T11:46:38.065Z,14.00
2022-10-12T11:49:32.306Z,14.00
2022-10-12T11:52:27.768Z,14.10
2022-10-12T11:55:31.613Z,14.20
2022-10-12T11:58:36.444Z,14.20
2022-10-12T12:01:54.551Z,14.20
2022-10-12T12:04:47.233Z,14.10
2022-10-12T12:07:54.895Z,14.10
2022-10-12T12:11:07.034Z,14.10
2022-10-12T12:14:47.737Z,14.10
2022-10-12T12:17:38.813Z,14.20
2022-10-12T12:21:02.561Z,14.20
2022-10-12T12:23:54.830Z,14.40
2022-10-12T12:26:48.461Z,14.40
2022-10-12T12:29:37.199Z,14.50
2022-10-12T12:32:27.325Z,14.60
2022-10-12T12:35:25.821Z,14.70
2022-10-12T12:38:27.901Z,14.60
2022-10-12T12:41:18.691Z,14.60
2022-10-12T12:44:31.313Z,14.70
2022-10-12T12:47:46.564Z,15.00
2022-10-12T12:50:38.584Z,15.20
2022-10-12T12:53:30.047Z,15.10
2022-10-12T12:56:24.552Z,14.90
2022-10-12T12:59:48.349Z,14.80
2022-10-12T13:03:19.093Z,14.70
2022-10-12T13:06:52.245Z,14.60
2022-10-12T13:10:10.719Z,14.70
2022-10-12T13:13:28.555Z,15.10
2022-10-12T13:17:30.609Z,15.20
2022-10-12T13:19:55.910Z,15.30
2022-10-12T13:22:46.730Z,15.30
2022-10-12T13:25:41.455Z,15.10
2022-10-12T13:28:31.720Z,15.10
2022-10-12T13:31:24.348Z,15.00
2022-10-12T13:34:18.685Z,14.90
2022-10-12T13:37:13.514Z,14.90
2022-10-12T13:40:02.065Z,15.10
2022-10-12T13:42:52.045Z,15.30
2022-10-12T13:45:46.381Z,15.30
2022-10-12T13:48:58.099Z,15.40
2022-10-12T13:51:45.771Z,15.40
2022-10-12T13:54:38.791Z,15.30
2022-10-12T13:57:31.981Z,15.30
2022-10-12T14:00:26.169Z,15.30
2022-10-12T14:03:14.725Z,15.20
2022-10-12T14:06:04.564Z,15.20
2022-10-12T14:08:53.993Z,15.10
2022-10-12T14:11:43.857Z,15.30
2022-10-12T14:14:35.471Z,15.30
2022-10-12T14:17:25.530Z,15.10
2022-10-12T14:20:19.501Z,15.10
2022-10-12T14:23:13.928Z,15.00
2022-10-12T14:26:02.581Z,14.90
2022-10-12T14:28:51.273Z,14.80
2022-10-12T14:31:52.384Z,14.80
2022-10-12T14:34:46.638Z,14.80
2022-10-12T14:37:35.241Z,14.80
2022-10-12T14:40:37.563Z,14.70
2022-10-12T14:43:29.416Z,14.70
2022-10-12T14:46:18.062Z,14.60
2022-10-12T14:49:07.669Z,14.60
2022-10-12T14:51:57.759Z,14.60
2022-10-12T14:54:46.392Z,14.70
2022-10-12T14:57:35.040Z,14.80
2022-10-12T15:00:25.674Z,14.70
2022-10-12T15:03:14.222Z,14.70
2022-10-12T15:06:02.753Z,14.70
2022-10-12T15:08:52.986Z,14.70
2022-10-12T15:11:41.536Z,14.60
2022-10-12T15:14:30.104Z,14.50
2022-10-12T15:17:20.029Z,14.40
2022-10-12T15:20:09.974Z,14.30
2022-10-12T15:22:59.055Z,14.30
2022-10-12T15:25:52.509Z,14.20
2022-10-12T15:28:41.219Z,14.20
2022-10-12T15:31:29.778Z,14.20
2022-10-12T15:34:18.361Z,14.20
2022-10-12T15:37:09.214Z,14.20
2022-10-12T15:39:57.892Z,14.20
2022-10-12T15:42:48.567Z,14.30
2022-10-12T15:45:39.085Z,14.30
2022-10-12T15:48:29.061Z,14.20
2022-10-12T15:51:22.775Z,14.20
2022-10-12T15:54:12.117Z,14.10
2022-10-12T15:57:00.668Z,13.90
2022-10-12T15:59:52.494Z,13.90
2022-10-12T16:02:42.287Z,13.80
2022-10-12T16:05:33.495Z,13.70
2022-10-12T16:08:22.070Z,13.60
2022-10-12T16:11:13.756Z,13.50
2022-10-12T16:14:02.436Z,13.50
2022-10-12T16:16:52.439Z,13.40
2022-10-12T16:19:40.980Z,13.40
2022-10-12T16:22:30.055Z,13.40
2022-10-12T16:25:21.567Z,13.30
2022-10-12T16:28:12.295Z,13.20
2022-10-12T16:31:01.115Z,13.00
2022-10-12T16:33:51.065Z,12.90
2022-10-12T16:36:39.594Z,12.80
2022-10-12T16:39:28.320Z,12.70
2022-10-12T16:42:16.963Z,12.50
2022-10-12T16:45:06.268Z,12.30
2022-10-12T16:47:55.096Z,12.20
2022-10-12T16:50:45.019Z,12.10
2022-10-12T16:53:33.602Z,12.00
2022-10-12T16:56:22.112Z,11.90
2022-10-12T16:59:10.696Z,11.80
2022-10-12T17:01:59.228Z,11.70
2022-10-12T17:04:48.101Z,11.50
2022-10-12T17:07:38.066Z,11.50
2022-10-12T17:10:26.608Z,11.30
2022-10-12T17:13:15.147Z,11.10
2022-10-12T17:16:25.521Z,11.10
2022-10-12T17:19:15.280Z,11.00
2022-10-12T17:22:06.542Z,11.00
2022-10-12T17:24:56.521Z,10.90
2022-10-12T17:27:45.054Z,10.90
2022-10-12T17:30:33.637Z,10.80
2022-10-12T17:33:22.177Z,10.70
2022-10-12T17:36:13.386Z,10.70
2022-10-12T17:39:02.145Z,10.60
2022-10-12T17:41:52.125Z,10.60
2022-10-12T17:44:40.802Z,10.60
2022-10-12T17:47:29.317Z,10.70
2022-10-12T17:50:18.021Z,10.80
2022-10-12T17:53:06.588Z,10.80
2022-10-12T17:55:58.907Z,10.90
2022-10-12T17:58:53.555Z,10.80
2022-10-12T18:01:42.150Z,10.70
2022-10-12T18:04:30.715Z,10.60
2022-10-12T18:07:19.770Z,10.60
2022-10-12T18:10:09.845Z,10.50
2022-10-12T18:12:58.356Z,10.50
2022-10-12T18:15:48.347Z,10.40
2022-10-12T18:18:37.047Z,10.40
2022-10-12T18:21:28.360Z,10.30
2022-10-12T18:24:17.713Z,10.30
2022-10-12T18:27:06.396Z,10.40
2022-10-12T18:29:56.322Z,10.40
2022-10-12T18:32:46.240Z,10.40
2022-10-12T18:35:35.558Z,10.30
2022-10-12T18:38:24.061Z,10.40
2022-10-12T18:41:14.514Z,10.40
2022-10-12T18:44:03.746Z,10.30
2022-10-12T18:46:52.328Z,10.30
2022-10-12T18:49:42.555Z,10.20
2022-10-12T18:52:31.096Z,10.20
2022-10-12T18:55:19.672Z,10.20
2022-10-12T18:58:08.221Z,10.20
2022-10-12T19:00:56.855Z,10.30
2022-10-12T19:03:45.636Z,10.20
2022-10-12T19:06:37.908Z,10.10
2022-10-12T19:09:26.428Z,10.10
2022-10-12T19:12:16.997Z,10.00
2022-10-12T19:15:06.582Z,10.10
2022-10-12T19:17:55.258Z,10.00
2022-10-12T19:20:43.816Z,10.00
2022-10-12T19:23:33.955Z,10.00
2022-10-12T19:26:25.740Z,9.90
2022-10-12T19:29:14.563Z,10.00
2022-10-12T19:32:03.482Z,10.00
2022-10-12T19:34:52.925Z,9.90
2022-10-12T19:37:41.568Z,10.00
2022-10-12T19:40:31.518Z,10.00
2022-10-12T19:43:20.062Z,10.00
2022-10-12T19:46:10.024Z,9.90
2022-10-12T19:48:59.846Z,9.90
2022-10-12T19:51:48.545Z,9.90
2022-10-12T19:54:37.108Z,9.80
2022-10-12T19:57:28.256Z,9.80
2022-10-12T20:00:17.334Z,9.80
2022-10-12T20:03:06.283Z,9.70
2022-10-12T20:05:54.877Z,9.80
2022-10-12T20:08:45.080Z,9.70
2022-10-12T20:11:33.650Z,9.80
2022-10-12T20:14:23.574Z,9.80
2022-10-12T20:17:12.121Z,9.80
2022-10-12T20:20:00.634Z,9.80
2022-10-12T20:22:49.432Z,9.80
2022-10-12T20:25:41.981Z,9.70
2022-10-12T20:28:30.537Z,9.70
2022-10-12T20:31:23.424Z,9.60
2022-10-12T20:34:11.985Z,9.60
2022-10-12T20:37:00.573Z,9.50
2022-10-12T20:39:51.766Z,9.50
2022-10-12T20:42:40.335Z,9.50
2022-10-12T20:45:28.881Z,9.60
2022-10-12T20:48:18.830Z,9.70
2022-10-12T20:51:08.602Z,9.60
2022-10-12T20:53:59.155Z,9.60
2022-10-12T20:56:51.956Z,9.70
2022-10-12T20:59:42.118Z,9.80
2022-10-12T21:02:30.681Z,9.80
2022-10-12T21:05:20.635Z,9.80
2022-10-12T21:08:09.443Z,9.80
2022-10-12T21:10:58.072Z,9.80
2022-10-12T21:13:46.768Z,9.80
2022-10-12T21:16:35.324Z,9.80
2022-10-12T21:19:23.983Z,9.70
2022-10-12T21:22:13.929Z,9.70
2022-10-12T21:25:02.450Z,9.60
2022-10-12T21:27:51.085Z,9.50
2022-10-12T21:30:39.654Z,9.50
2022-10-12T21:33:28.494Z,9.50
2022-10-12T21:36:19.173Z,9.50
2022-10-12T21:39:13.177Z,9.50
2022-10-12T21:42:01.690Z,9.50
2022-10-12T21:44:50.704Z,9.40
2022-10-12T21:47:39.265Z,9.30
2022-10-12T21:50:27.964Z,9.30
2022-10-12T21:53:16.518Z,9.20
2022-10-12T21:56:08.967Z,9.20
2022-10-12T21:58:59.478Z,9.20
2022-10-12T22:01:48.069Z,9.10
2022-10-12T22:04:36.669Z,9.10
2022-10-12T22:07:25.360Z,9.00
2022-10-12T22:10:13.966Z,9.10
2022-10-12T22:13:04.458Z,9.10
2022-10-12T22:16:03.787Z,9.00
2022-10-12T22:18:52.869Z,9.00
2022-10-12T22:21:41.720Z,9.00
2022-10-12T22:24:31.395Z,9.00
2022-10-12T22:27:20.008Z,9.00
2022-10-12T22:30:11.866Z,9.00
2022-10-12T22:33:00.453Z,9.00
2022-10-12T22:35:56.009Z,8.90
2022-10-12T22:38:44.952Z,8.90
2022-10-12T22:41:33.521Z,8.90
2022-10-12T22:44:22.274Z,8.80
2022-10-12T22:47:12.308Z,8.70
2022-10-12T22:50:00.840Z,8.70
2022-10-12T22:52:49.375Z,8.70
2022-10-12T22:55:37.889Z,8.70
2022-10-12T22:58:26.474Z,8.70
2022-10-12T23:01:16.905Z,8.70
2022-10-12T23:04:07.128Z,8.70
2022-10-12T23:06:55.702Z,8.60
2022-10-12T23:09:45.034Z,8.60
2022-10-12T23:12:34.458Z,8.60
2022-10-12T23:15:23.024Z,8.50
2022-10-12T23:18:11.614Z,8.60
2022-10-12T23:21:01.827Z,8.50
2022-10-12T23:23:50.389Z,8.50
2022-10-12T23:26:38.924Z,8.50
2022-10-12T23:29:27.489Z,8.50
2022-10-12T23:32:16.447Z,8.40
2022-10-12T23:35:05.774Z,8.40
2022-10-12T23:37:55.725Z,8.40
2022-10-12T23:40:44.251Z,8.50
2022-10-12T23:43:33.046Z,8.40
2022-10-12T23:46:21.612Z,8.40
2022-10-12T23:49:10.629Z,8.40
2022-10-12T23:51:59.175Z,8.40
2022-10-12T23:54:49.080Z,8.50
2022-10-12T23:57:46.662Z,8.40
